EGQK

RAF Kinloss Airport

Kinloss, United Kingdom
METAR EGQK 161050Z AUTO 21006KT 9999 NCD 10/07 Q1010
Observed Flight Rules
Feb-16 @ 10:50 UTC (an hour ago) Visual Flight Rules
Wind Visibility Clouds
210° at 6 knots 10,000+ meters
  • Clear skies
Temperatures Readings
Current 10°C / 50°F
Dewpoint 7°C / 45°F
Humidity 82%
Altimeter 29.82" Hg
Pressure 1009.92 hPa
Elevation 7
METAR EGQK 161050Z AUTO 21006KT 9999 NCD 10/07 Q1010
Observed Flight Rules
Feb-16 @ 10:50 UTC
(an hour ago)
VFR
Wind Visibility
210° at 6 knots 10,000+ meters
Clouds
  • Clear skies
Temperature Dewpoint
10°C / 50°F 7°C / 45°F
Humidity Altimeter Pressure
82% 29.82" Hg 1009.92 hPa